Time;durP1;ratioP1;P1;durP2;ratioP2;P2;SDS_P1;SDS_P2;PMS_P1;PMS_P2;Temp;Humidity;BMP_temperature;BMP_pressure;BME280_temperature;BME280_humidity;BME280_pressure;Samples;Min_cycle;Max_cycle;Signal;HPM_P1;HPM_P2
2023/03/23 00:00:09;;;;;;;7.35;6.10;;;12.80;99.90;;;;;;4937204;28;99386;-73
2023/03/23 00:02:37;;;;;;;8.65;7.75;;;12.80;99.90;;;;;;4938025;28;98613;-73
2023/03/23 00:05:06;;;;;;;10.43;7.93;;;12.80;99.90;;;;;;4953662;28;100016;-74
2023/03/23 00:07:33;;;;;;;7.35;6.65;;;12.80;99.90;;;;;;4937149;28;99020;-74
2023/03/23 00:10:02;;;;;;;8.40;6.53;;;12.80;99.90;;;;;;4937587;28;98642;-73
2023/03/23 00:12:33;;;;;;;8.98;7.95;;;12.80;99.90;;;;;;4937417;28;98521;-74
2023/03/23 00:15:01;;;;;;;11.38;8.50;;;12.80;99.90;;;;;;4954912;28;99341;-74
2023/03/23 00:17:28;;;;;;;11.30;8.60;;;12.80;99.90;;;;;;4936811;28;100140;-73
2023/03/23 00:19:54;;;;;;;11.85;7.82;;;12.80;99.90;;;;;;4921274;28;98670;-74
2023/03/23 00:22:21;;;;;;;9.80;7.95;;;12.80;99.90;;;;;;4937156;28;98641;-73
2023/03/23 00:24:50;;;;;;;9.25;7.70;;;12.80;99.90;;;;;;4936322;28;102796;-73
2023/03/23 00:27:17;;;;;;;8.45;7.63;;;12.80;99.90;;;;;;4936641;28;102172;-74
2023/03/23 00:29:44;;;;;;;9.45;7.50;;;12.80;99.90;;;;;;4937341;28;99045;-73
2023/03/23 00:32:14;;;;;;;8.00;6.88;;;12.80;99.90;;;;;;4921088;28;98679;-73
2023/03/23 00:34:43;;;;;;;11.55;7.38;;;12.80;99.90;;;;;;4936614;28;101818;-73
2023/03/23 00:37:10;;;;;;;8.95;7.72;;;12.80;99.90;;;;;;4936624;28;101882;-73
2023/03/23 00:39:38;;;;;;;12.38;7.88;;;12.80;99.90;;;;;;4936398;28;98563;-73
2023/03/23 00:42:04;;;;;;;9.68;8.07;;;12.80;99.90;;;;;;4937201;28;97864;-73
2023/03/23 00:44:33;;;;;;;7.82;6.95;;;12.70;99.90;;;;;;4936174;28;101847;-73
2023/03/23 00:46:59;;;;;;;9.65;8.13;;;12.70;99.90;;;;;;4952915;28;101608;-74
2023/03/23 00:49:26;;;;;;;8.80;7.65;;;12.70;99.90;;;;;;4936663;28;99861;-71
2023/03/23 00:51:54;;;;;;;10.48;7.28;;;12.70;99.90;;;;;;4920653;28;99244;-71
2023/03/23 00:54:21;;;;;;;10.23;7.43;;;12.80;99.90;;;;;;4936313;28;99386;-71
2023/03/23 00:56:49;;;;;;;8.00;7.07;;;12.80;99.90;;;;;;4920433;28;101540;-71
2023/03/23 00:59:15;;;;;;;7.40;6.68;;;12.70;99.90;;;;;;4920808;28;98593;-72
2023/03/23 01:01:41;;;;;;;9.48;6.97;;;12.70;99.90;;;;;;4936714;28;99142;-72
2023/03/23 01:04:08;;;;;;;8.40;6.53;;;12.70;99.90;;;;;;4952547;28;101958;-71
2023/03/23 01:06:38;;;;;;;7.35;6.53;;;12.70;99.90;;;;;;4920184;28;101820;-71
2023/03/23 01:09:09;;;;;;;7.30;6.10;;;12.70;99.90;;;;;;4936716;28;98556;-71
2023/03/23 01:11:37;;;;;;;8.48;6.05;;;12.70;99.90;;;;;;4920115;28;98598;-71
2023/03/23 01:14:05;;;;;;;8.45;6.38;;;12.70;99.90;;;;;;4935994;28;102868;-72
2023/03/23 01:16:30;;;;;;;9.45;6.75;;;12.70;99.90;;;;;;4953355;28;99909;-72
2023/03/23 01:18:56;;;;;;;9.38;6.80;;;12.70;99.90;;;;;;4920669;28;99176;-71
2023/03/23 01:21:24;;;;;;;7.28;6.25;;;12.80;99.90;;;;;;4920223;28;98659;-71
2023/03/23 01:23:51;;;;;;;8.50;6.50;;;12.80;99.90;;;;;;4903925;28;101771;-72
2023/03/23 01:26:20;;;;;;;10.02;6.53;;;12.80;99.90;;;;;;4919626;28;102109;-71
2023/03/23 01:28:47;;;;;;;7.03;5.78;;;12.80;99.90;;;;;;4936433;28;98887;-71
2023/03/23 01:31:19;;;;;;;5.78;5.18;;;12.70;99.90;;;;;;4936572;28;97860;-71
2023/03/23 01:33:45;;;;;;;8.40;5.60;;;12.70;99.90;;;;;;4935874;28;99091;-72
2023/03/23 01:36:14;;;;;;;5.78;4.82;;;12.70;99.90;;;;;;4935970;28;101763;-72
2023/03/23 01:38:43;;;;;;;7.03;4.43;;;12.70;99.90;;;;;;4919558;28;99338;-71
2023/03/23 01:41:09;;;;;;;8.10;5.30;;;12.60;99.90;;;;;;4952401;28;98631;-71
2023/03/23 01:43:35;;;;;;;7.32;4.30;;;12.60;99.90;;;;;;4951706;28;101998;-71
2023/03/23 01:46:01;;;;;;;6.13;4.35;;;12.60;99.90;;;;;;4903525;28;101449;-71
2023/03/23 01:48:32;;;;;;;4.55;4.07;;;12.60;99.90;;;;;;4935696;28;98638;-71
2023/03/23 01:51:06;;;;;;;7.45;3.95;;;12.60;99.90;;;;;;4919787;28;98540;-71
2023/03/23 01:53:44;;;;;;;5.70;3.78;;;12.60;99.90;;;;;;4935053;28;102031;-71
2023/03/23 01:56:13;;;;;;;4.93;3.83;;;12.70;99.90;;;;;;4952046;28;98751;-71
2023/03/23 01:58:41;;;;;;;5.22;3.60;;;12.60;99.90;;;;;;4919406;28;98613;-71
2023/03/23 02:01:11;;;;;;;3.47;3.22;;;12.60;99.90;;;;;;4952068;28;98654;-72
2023/03/23 02:03:42;;;;;;;4.72;3.38;;;12.60;99.90;;;;;;4934786;28;102334;-71
2023/03/23 02:06:08;;;;;;;4.28;3.40;;;12.60;99.90;;;;;;4935341;28;101994;-71
2023/03/23 02:08:42;;;;;;;5.78;3.88;;;12.60;99.90;;;;;;4935631;28;98675;-72
2023/03/23 02:11:13;;;;;;;6.57;3.92;;;12.60;99.90;;;;;;4935507;28;98676;-71
2023/03/23 02:13:40;;;;;;;7.63;4.07;;;12.60;99.90;;;;;;4903072;28;101134;-71
2023/03/23 02:16:25;;;;;;;5.32;4.18;;;12.60;99.90;;;;;;4919117;28;101310;-72
2023/03/23 02:19:10;;;;;;;6.22;4.10;;;12.70;99.90;;;;;;4935194;28;98506;-71
2023/03/23 02:21:51;;;;;;;5.82;4.40;;;12.60;99.90;;;;;;4935947;28;97931;-71
2023/03/23 02:24:30;;;;;;;6.20;4.07;;;12.70;99.90;;;;;;4935086;28;101830;-71
2023/03/23 02:27:05;;;;;;;5.93;4.88;;;12.70;99.90;;;;;;4918887;28;101601;-72
2023/03/23 02:29:31;;;;;;;6.72;4.10;;;12.60;99.90;;;;;;4935158;28;99345;-72
2023/03/23 02:32:06;;;;;;;6.50;4.10;;;12.60;99.90;;;;;;4935322;28;98575;-71
2023/03/23 02:34:43;;;;;;;5.10;3.75;;;12.60;99.90;;;;;;4934928;28;101978;-72
2023/03/23 02:37:14;;;;;;;4.07;3.67;;;12.60;99.90;;;;;;4951412;28;100181;-72
2023/03/23 02:39:49;;;;;;;4.70;3.63;;;12.60;99.90;;;;;;4935210;28;98665;-72
2023/03/23 02:42:20;;;;;;;5.30;4.25;;;12.60;99.90;;;;;;4935633;28;98565;-71
2023/03/23 02:44:48;;;;;;;5.25;3.72;;;12.60;99.90;;;;;;4918237;28;101755;-72
2023/03/23 02:47:20;;;;;;;5.30;3.75;;;12.60;99.90;;;;;;4935145;28;101681;-71
2023/03/23 02:49:50;;;;;;;6.82;4.03;;;12.50;99.90;;;;;;4918958;28;98647;-71
2023/03/23 02:52:21;;;;;;;6.15;3.70;;;12.50;99.90;;;;;;4951425;28;98544;-71
2023/03/23 02:54:50;;;;;;;5.40;3.40;;;12.60;99.90;;;;;;4918384;28;101096;-71
2023/03/23 02:57:17;;;;;;;4.00;3.28;;;12.60;99.90;;;;;;4934708;28;101709;-72
2023/03/23 02:59:45;;;;;;;8.25;3.72;;;12.50;99.90;;;;;;4935184;28;98555;-71
2023/03/23 03:02:21;;;;;;;5.57;3.80;;;12.50;99.90;;;;;;4935137;28;98743;-71
2023/03/23 03:05:03;;;;;;;4.68;3.40;;;12.60;99.90;;;;;;4918170;28;101954;-72
2023/03/23 03:07:29;;;;;;;8.50;3.72;;;12.60;99.90;;;;;;4937995;28;101691;-71
2023/03/23 03:10:12;;;;;;;4.70;3.35;;;12.50;99.90;;;;;;4938314;28;99074;-71
2023/03/23 03:12:47;;;;;;;7.87;3.67;;;12.60;99.90;;;;;;4938428;28;97786;-71
2023/03/23 03:15:22;;;;;;;5.68;3.72;;;12.50;99.90;;;;;;4955702;28;99339;-72
2023/03/23 03:18:01;;;;;;;5.25;3.45;;;12.60;99.90;;;;;;4921090;28;101548;-72
2023/03/23 03:20:29;;;;;;;6.35;4.10;;;12.60;99.90;;;;;;4937817;28;99337;-71
2023/03/23 03:22:57;;;;;;;5.22;4.25;;;12.50;99.90;;;;;;4921596;28;98636;-71
2023/03/23 03:25:25;;;;;;;4.07;3.67;;;12.50;99.90;;;;;;4921764;28;101487;-72
2023/03/23 03:27:52;;;;;;;6.28;4.63;;;12.50;99.90;;;;;;4921558;28;101330;-71
2023/03/23 03:30:36;;;;;;;4.63;3.92;;;12.50;99.90;;;;;;4938066;28;98599;-72
2023/03/23 03:33:04;;;;;;;5.07;4.35;;;12.50;99.90;;;;;;4938070;28;99139;-72
2023/03/23 03:35:31;;;;;;;6.60;3.90;;;12.50;99.90;;;;;;4937619;28;101665;-72
2023/03/23 03:38:05;;;;;;;4.68;3.63;;;12.50;99.90;;;;;;4954394;28;99041;-72
2023/03/23 03:40:31;;;;;;;4.90;3.80;;;12.50;99.90;;;;;;4938293;28;98604;-71
2023/03/23 03:42:57;;;;;;;4.50;4.10;;;12.50;99.90;;;;;;4937253;28;98526;-73
2023/03/23 03:45:22;;;;;;;7.05;4.10;;;12.50;99.90;;;;;;4920862;28;102401;-73
2023/03/23 03:47:49;;;;;;;5.72;4.07;;;12.50;99.90;;;;;;4937709;28;99677;-73
2023/03/23 03:50:16;;;;;;;4.43;4.10;;;12.50;99.90;;;;;;4921873;28;98517;-74
2023/03/23 03:52:42;;;;;;;4.85;3.92;;;12.50;99.90;;;;;;4937574;28;98610;-73
2023/03/23 03:55:10;;;;;;;5.82;3.78;;;12.50;99.90;;;;;;4937346;28;101556;-73
2023/03/23 03:57:39;;;;;;;5.05;4.05;;;12.50;99.90;;;;;;4937154;28;101750;-74
2023/03/23 04:00:24;;;;;;;5.22;3.63;;;12.60;99.90;;;;;;4955213;28;98469;-74
2023/03/23 04:02:53;;;;;;;3.65;3.35;;;12.60;99.90;;;;;;4937846;28;97850;-74
2023/03/23 04:05:40;;;;;;;4.72;4.13;;;12.60;99.90;;;;;;4927246;28;99182;-74
2023/03/23 04:08:06;;;;;;;6.55;3.58;;;12.60;99.90;;;;;;4936591;28;101731;-73
2023/03/23 04:10:32;;;;;;;8.38;4.13;;;12.50;99.90;;;;;;4921464;28;99237;-73
2023/03/23 04:12:59;;;;;;;4.43;4.00;;;12.60;99.90;;;;;;4921382;28;98589;-74
2023/03/23 04:15:56;;;;;;;5.70;4.20;;;12.60;99.90;;;;;;4941535;28;100093;-73
2023/03/23 04:18:24;;;;;;;3.90;3.50;;;12.60;99.90;;;;;;4935795;28;99009;-74
2023/03/23 04:20:50;;;;;;;4.88;3.67;;;12.70;99.90;;;;;;4953466;28;98577;-73
2023/03/23 04:23:20;;;;;;;4.80;3.78;;;12.60;99.90;;;;;;4921469;28;98832;-73
2023/03/23 04:25:48;;;;;;;6.13;3.88;;;12.60;99.90;;;;;;4920725;28;101419;-74
2023/03/23 04:28:16;;;;;;;6.18;4.22;;;12.60;99.90;;;;;;4937393;28;99174;-74
2023/03/23 04:30:55;;;;;;;7.00;4.60;;;12.50;99.90;;;;;;4936719;28;98536;-74
2023/03/23 04:33:24;;;;;;;4.95;4.35;;;12.50;99.90;;;;;;4937155;28;98563;-74
2023/03/23 04:35:54;;;;;;;5.07;4.28;;;12.50;99.90;;;;;;4936212;28;102246;-73
2023/03/23 04:38:32;;;;;;;8.07;4.50;;;12.40;99.90;;;;;;4921904;28;102070;-74
2023/03/23 04:41:03;;;;;;;4.93;4.43;;;12.40;99.90;;;;;;4936972;28;98615;-74
2023/03/23 04:43:56;;;;;;;6.22;4.57;;;12.30;99.90;;;;;;4924471;28;98716;-74
2023/03/23 04:46:28;;;;;;;4.85;4.28;;;12.30;99.90;;;;;;4937276;28;101243;-74
2023/03/23 04:48:59;;;;;;;7.68;4.85;;;12.40;99.90;;;;;;4936251;28;100892;-74
2023/03/23 04:51:31;;;;;;;5.28;4.63;;;12.40;99.90;;;;;;4921411;28;98632;-74
2023/03/23 04:54:03;;;;;;;5.18;4.43;;;12.40;99.90;;;;;;4936952;28;98111;-73
2023/03/23 04:56:31;;;;;;;6.95;4.57;;;12.50;99.90;;;;;;4936308;28;101860;-74
2023/03/23 04:59:03;;;;;;;5.88;4.68;;;12.50;99.90;;;;;;4920963;28;100109;-74
2023/03/23 05:01:47;;;;;;;5.50;4.60;;;12.60;99.90;;;;;;4908928;28;99221;-74
2023/03/23 05:04:17;;;;;;;7.03;4.85;;;12.60;99.90;;;;;;4905687;28;98583;-73
2023/03/23 05:06:58;;;;;;;6.38;4.53;;;12.60;99.90;;;;;;4907766;28;101546;-74
2023/03/23 05:09:27;;;;;;;7.97;5.22;;;12.70;99.90;;;;;;4936920;28;101558;-74
2023/03/23 05:11:54;;;;;;;10.48;6.10;;;12.70;99.90;;;;;;4952834;28;98606;-74
2023/03/23 05:14:21;;;;;;;12.13;5.93;;;12.70;99.90;;;;;;4904407;28;98613;-73
2023/03/23 05:16:58;;;;;;;9.45;6.03;;;12.70;99.90;;;;;;4935291;28;101341;-73
2023/03/23 05:19:25;;;;;;;10.52;6.45;;;12.70;99.90;;;;;;4936348;28;101374;-74
2023/03/23 05:21:53;;;;;;;5.35;4.13;;;12.60;99.90;;;;;;4920643;28;98556;-74
2023/03/23 05:24:20;;;;;;;7.53;2.50;;;12.50;99.90;;;;;;4904336;28;98645;-73
2023/03/23 05:26:48;;;;;;;5.95;2.70;;;12.40;99.90;;;;;;4935539;28;101105;-74
2023/03/23 05:29:18;;;;;;;8.93;2.75;;;12.30;99.90;;;;;;4953649;28;100526;-73
2023/03/23 05:31:55;;;;;;;4.07;2.10;;;12.20;99.90;;;;;;4936073;28;98479;-73
2023/03/23 05:34:22;;;;;;;2.28;1.75;;;12.20;99.90;;;;;;4936201;28;98669;-73
2023/03/23 05:36:57;;;;;;;2.30;2.10;;;12.10;99.90;;;;;;4935497;28;101871;-73
2023/03/23 05:39:32;;;;;;;4.15;1.85;;;12.10;99.90;;;;;;4937524;28;99357;-73
2023/03/23 05:42:12;;;;;;;4.00;2.20;;;12.10;99.90;;;;;;4936137;28;98982;-73
2023/03/23 05:44:50;;;;;;;3.88;2.35;;;12.10;99.90;;;;;;4921664;28;97811;-73
2023/03/23 05:47:17;;;;;;;3.75;2.05;;;12.00;99.90;;;;;;4935581;28;101396;-73
2023/03/23 05:49:50;;;;;;;5.43;2.10;;;12.00;99.90;;;;;;4920582;28;101446;-73
2023/03/23 05:52:19;;;;;;;4.45;2.65;;;11.90;99.90;;;;;;4935540;28;99338;-73
2023/03/23 05:54:46;;;;;;;6.55;2.35;;;11.90;99.90;;;;;;4920029;28;98654;-73
2023/03/23 05:57:12;;;;;;;6.45;2.50;;;11.90;99.90;;;;;;4919377;28;101984;-73
2023/03/23 06:00:14;;;;;;;7.10;2.22;;;12.00;99.90;;;;;;4949436;28;99015;-73
2023/03/23 06:02:43;;;;;;;9.25;3.25;;;12.00;99.90;;;;;;4935637;28;98531;-73
2023/03/23 06:05:13;;;;;;;9.25;2.35;;;12.00;99.90;;;;;;4936145;28;98597;-74
2023/03/23 06:07:43;;;;;;;10.45;2.60;;;12.10;99.90;;;;;;4919659;28;101572;-73
2023/03/23 06:10:10;;;;;;;8.80;2.70;;;12.20;99.90;;;;;;4951798;28;101599;-73
2023/03/23 06:12:39;;;;;;;9.23;3.45;;;12.20;99.90;;;;;;4935758;28;98741;-73
2023/03/23 06:15:11;;;;;;;6.05;2.35;;;12.20;99.90;;;;;;4936035;28;98541;-73
2023/03/23 06:18:04;;;;;;;5.85;2.58;;;12.30;99.90;;;;;;4934151;28;102429;-73
2023/03/23 06:20:46;;;;;;;9.15;1.88;;;12.20;99.90;;;;;;4935073;28;101672;-74
2023/03/23 06:23:32;;;;;;;7.57;2.22;;;12.20;99.90;;;;;;4930942;28;98771;-73
2023/03/23 06:26:02;;;;;;;8.18;2.20;;;12.20;99.90;;;;;;4919381;28;98596;-74
2023/03/23 06:28:28;;;;;;;6.80;2.40;;;12.30;99.90;;;;;;4935340;28;101435;-73
2023/03/23 06:30:58;;;;;;;7.50;2.17;;;12.30;99.90;;;;;;4919031;28;101393;-74
2023/03/23 06:33:24;;;;;;;7.43;1.92;;;12.20;99.90;;;;;;4935354;28;98534;-73
2023/03/23 06:36:06;;;;;;;5.13;2.60;;;12.20;99.90;;;;;;4923756;28;97870;-73
2023/03/23 06:38:44;;;;;;;6.43;2.13;;;12.30;99.90;;;;;;4951364;28;101932;-74
2023/03/23 06:41:12;;;;;;;6.32;2.25;;;12.30;99.90;;;;;;4936080;28;100039;-74
2023/03/23 06:43:39;;;;;;;7.30;2.20;;;12.30;99.90;;;;;;4906290;28;99398;-73
2023/03/23 06:46:14;;;;;;;7.90;2.30;;;12.30;99.90;;;;;;4938660;28;98634;-73
2023/03/23 06:48:40;;;;;;;9.75;2.40;;;12.40;99.90;;;;;;4938642;28;99128;-73
2023/03/23 06:51:07;;;;;;;7.88;2.35;;;12.50;99.90;;;;;;4938057;28;101769;-73
2023/03/23 06:53:35;;;;;;;6.82;2.55;;;12.50;99.90;;;;;;4938890;28;98539;-74
2023/03/23 06:56:03;;;;;;;4.20;2.13;;;12.60;99.90;;;;;;4954542;28;98636;-73
2023/03/23 06:58:30;;;;;;;10.05;2.80;;;12.70;99.90;;;;;;4921884;28;101506;-74
2023/03/23 07:00:58;;;;;;;13.40;2.38;;;12.70;99.90;;;;;;4938282;28;101253;-73
2023/03/23 07:03:31;;;;;;;12.13;2.55;;;12.70;99.90;;;;;;4938021;28;98624;-73
2023/03/23 07:05:59;;;;;;;8.90;2.55;;;12.70;99.90;;;;;;4922246;28;98560;-74
2023/03/23 07:08:28;;;;;;;8.50;2.80;;;12.70;99.90;;;;;;4937947;28;102521;-73
2023/03/23 07:10:56;;;;;;;8.80;2.40;;;12.80;99.90;;;;;;4954165;28;102249;-73
2023/03/23 07:13:26;;;;;;;13.18;3.33;;;12.90;99.90;;;;;;4922473;28;98555;-74
2023/03/23 07:15:59;;;;;;;15.38;3.72;;;13.00;99.90;;;;;;4938498;28;98523;-73
2023/03/23 07:18:25;;;;;;;14.20;3.60;;;13.10;99.90;;;;;;4921486;28;101558;-73
2023/03/23 07:20:53;;;;;;;14.88;3.10;;;13.20;99.90;;;;;;4906222;28;101428;-74
2023/03/23 07:23:22;;;;;;;17.92;3.63;;;13.20;99.90;;;;;;4954214;28;98516;-74
2023/03/23 07:26:04;;;;;;;16.63;4.07;;;13.30;99.90;;;;;;4938284;28;97884;-73
2023/03/23 07:28:36;;;;;;;11.63;2.93;;;13.30;99.90;;;;;;4953971;28;101107;-73
2023/03/23 07:31:22;;;;;;;15.55;3.58;;;13.30;99.90;;;;;;4939318;28;98630;-73
2023/03/23 07:33:49;;;;;;;13.70;3.38;;;13.30;99.90;;;;;;4954128;28;99448;-73
2023/03/23 07:36:16;;;;;;;16.00;3.50;;;13.40;99.90;;;;;;4937680;28;98629;-74
2023/03/23 07:38:43;;;;;;;12.15;2.80;;;13.50;99.90;;;;;;4953794;28;102163;-73
2023/03/23 07:41:09;;;;;;;11.35;2.35;;;13.40;99.90;;;;;;4953971;28;101563;-73
2023/03/23 07:43:38;;;;;;;12.63;3.70;;;13.40;99.90;;;;;;4922147;28;98686;-74
2023/03/23 07:46:10;;;;;;;12.95;3.35;;;13.40;99.90;;;;;;4938351;28;99155;-73
2023/03/23 07:48:47;;;;;;;16.13;5.60;;;13.60;99.90;;;;;;4893782;28;100219;-73
2023/03/23 07:51:16;;;;;;;11.80;4.57;;;14.00;99.90;;;;;;4937730;28;100886;-74
2023/03/23 07:53:46;;;;;;;13.05;3.80;;;14.50;99.90;;;;;;4936920;28;98689;-74
2023/03/23 07:56:36;;;;;;;12.77;3.72;;;15.20;99.90;;;;;;4951396;28;98564;-74
2023/03/23 07:59:12;;;;;;;12.27;2.97;;;15.80;99.90;;;;;;4922238;28;102247;-74
2023/03/23 08:01:40;;;;;;;15.38;3.33;;;16.30;99.90;;;;;;4937201;28;100708;-74
2023/03/23 08:04:42;;;;;;;10.23;2.80;;;16.30;99.90;;;;;;4934552;28;98697;-74
2023/03/23 08:07:29;;;;;;;13.90;3.45;;;16.20;99.90;;;;;;4910792;28;98567;-74
2023/03/23 08:10:03;;;;;;;13.35;2.80;;;16.20;99.90;;;;;;4921921;28;101600;-74
2023/03/23 08:12:52;;;;;;;13.85;3.53;;;16.10;99.90;;;;;;4938710;28;98980;-73
2023/03/23 08:15:29;;;;;;;14.45;3.85;;;16.00;99.90;;;;;;4939104;28;98524;-72
2023/03/23 08:18:13;;;;;;;14.68;3.50;;;15.90;99.90;;;;;;4951242;28;97897;-72
2023/03/23 08:21:08;;;;;;;18.10;3.78;;;15.90;99.90;;;;;;4928170;28;99065;-71
2023/03/23 08:24:01;;;;;;;13.38;3.22;;;15.80;99.90;;;;;;4936881;28;101616;-72
2023/03/23 08:26:43;;;;;;;15.43;4.07;;;15.80;99.90;;;;;;4953364;28;99258;-72
2023/03/23 08:29:28;;;;;;;12.00;3.38;;;15.70;99.90;;;;;;4938452;28;98524;-71
2023/03/23 08:32:03;;;;;;;17.45;3.58;;;15.80;99.90;;;;;;4937415;28;98867;-72
2023/03/23 08:34:53;;;;;;;14.32;4.03;;;15.80;99.90;;;;;;4936793;28;101768;-72
2023/03/23 08:37:38;;;;;;;13.98;4.20;;;15.70;99.90;;;;;;4938094;28;98703;-72
2023/03/23 08:40:31;;;;;;;12.52;3.75;;;15.70;99.90;;;;;;4917717;28;98629;-71
2023/03/23 08:43:18;;;;;;;14.98;3.70;;;15.60;99.90;;;;;;4942601;28;98736;-72
2023/03/23 08:46:06;;;;;;;16.85;3.60;;;15.60;99.90;;;;;;4938215;28;98489;-72
2023/03/23 08:49:01;;;;;;;13.07;3.85;;;15.70;99.90;;;;;;4924588;28;98534;-72
2023/03/23 08:51:52;;;;;;;15.65;3.63;;;15.80;99.90;;;;;;4936772;28;98550;-72
2023/03/23 08:54:37;;;;;;;18.85;3.85;;;15.70;99.90;;;;;;4952428;28;99702;-72
2023/03/23 08:57:25;;;;;;;17.42;4.07;;;15.80;99.90;;;;;;4938688;28;100491;-72
2023/03/23 09:00:17;;;;;;;18.13;3.57;;;15.70;99.90;;;;;;4922804;28;98707;-72
2023/03/23 09:03:03;;;;;;;18.58;4.32;;;15.60;99.90;;;;;;4938212;28;98526;-72
2023/03/23 09:05:49;;;;;;;16.25;4.10;;;15.70;99.90;;;;;;4931811;28;99054;-72
2023/03/23 09:08:28;;;;;;;13.80;3.78;;;15.80;99.90;;;;;;4953927;28;99113;-72
2023/03/23 09:10:58;;;;;;;13.32;3.30;;;15.90;99.90;;;;;;4945451;28;99284;-72
2023/03/23 09:13:24;;;;;;;12.68;3.78;;;16.00;99.90;;;;;;4953496;28;97908;-72
2023/03/23 09:15:51;;;;;;;12.50;3.60;;;16.00;99.90;;;;;;4952723;28;100143;-72
2023/03/23 09:18:18;;;;;;;17.90;4.18;;;16.10;99.90;;;;;;4953452;28;99148;-72
2023/03/23 09:20:45;;;;;;;14.32;3.88;;;16.10;99.90;;;;;;4952429;28;99825;-72
2023/03/23 09:23:12;;;;;;;17.15;4.07;;;16.00;99.90;;;;;;4968964;28;98524;-72
2023/03/23 09:25:39;;;;;;;17.25;4.47;;;15.90;99.90;;;;;;4919877;28;101795;-72
2023/03/23 09:28:05;;;;;;;14.20;3.38;;;15.90;99.90;;;;;;4936100;28;100149;-72
2023/03/23 09:30:33;;;;;;;17.42;3.83;;;15.90;99.90;;;;;;4936063;28;98611;-72
2023/03/23 09:33:04;;;;;;;11.38;3.53;;;16.00;99.90;;;;;;4936185;28;98631;-72
2023/03/23 09:35:35;;;;;;;14.18;3.47;;;16.20;99.90;;;;;;4951936;28;100434;-72
2023/03/23 09:38:02;;;;;;;16.23;4.22;;;16.10;99.90;;;;;;4952855;28;99045;-72
2023/03/23 09:40:48;;;;;;;17.88;3.50;;;16.00;99.90;;;;;;4952667;28;98533;-72
2023/03/23 09:43:40;;;;;;;18.25;3.63;;;15.90;99.90;;;;;;4952368;28;98614;-71
2023/03/23 09:46:24;;;;;;;11.93;3.35;;;15.80;99.90;;;;;;4951996;28;100002;-72
2023/03/23 09:48:56;;;;;;;15.93;3.55;;;15.70;99.90;;;;;;4951928;28;99901;-72
2023/03/23 09:51:37;;;;;;;20.30;4.32;;;15.60;99.90;;;;;;4952697;28;98578;-72
2023/03/23 09:54:19;;;;;;;16.02;3.47;;;15.70;99.90;;;;;;4952513;28;98586;-72
2023/03/23 09:56:47;;;;;;;18.48;4.18;;;15.60;99.90;;;;;;4953335;28;99419;-72
2023/03/23 09:59:36;;;;;;;18.73;4.70;;;15.60;99.90;;;;;;4951831;28;99114;-72
2023/03/23 10:02:30;;;;;;;19.25;3.72;;;15.80;99.90;;;;;;4953728;28;98516;-72
2023/03/23 10:05:14;;;;;;;16.88;3.85;;;16.10;99.90;;;;;;4932856;28;97852;-72
2023/03/23 10:07:40;;;;;;;16.70;3.80;;;16.50;99.90;;;;;;4951877;28;99387;-72
2023/03/23 10:10:13;;;;;;;16.17;3.25;;;16.70;99.90;;;;;;4935634;28;99337;-72
2023/03/23 10:13:04;;;;;;;14.02;3.85;;;16.70;99.90;;;;;;4935355;28;99352;-72
2023/03/23 10:15:35;;;;;;;12.45;3.35;;;16.80;99.90;;;;;;4967813;28;98439;-72
2023/03/23 10:18:13;;;;;;;12.45;2.80;;;16.70;99.90;;;;;;4951629;28;99418;-72
2023/03/23 10:20:44;;;;;;;13.77;3.35;;;16.60;99.90;;;;;;4952828;28;99123;-72
2023/03/23 10:23:19;;;;;;;11.38;3.05;;;16.60;99.90;;;;;;4952092;28;98629;-72
2023/03/23 10:26:00;;;;;;;13.32;3.65;;;16.80;99.90;;;;;;4935325;28;98655;-71
2023/03/23 10:28:49;;;;;;;11.93;2.70;;;16.90;99.90;;;;;;4918904;28;102226;-72
2023/03/23 10:31:33;;;;;;;10.20;2.80;;;17.10;99.90;;;;;;4935321;28;101509;-72
2023/03/23 10:34:10;;;;;;;14.73;3.03;;;17.20;99.90;;;;;;4951936;28;98579;-72
2023/03/23 10:36:58;;;;;;;10.93;3.00;;;17.30;99.90;;;;;;4953273;28;98585;-72
2023/03/23 10:39:29;;;;;;;10.32;3.10;;;17.40;99.90;;;;;;4951221;28;100059;-72
2023/03/23 10:41:55;;;;;;;11.85;2.95;;;17.30;99.90;;;;;;4951186;28;99704;-72
2023/03/23 10:44:25;;;;;;;15.48;3.78;;;17.10;99.90;;;;;;4951776;28;99114;-72
2023/03/23 10:46:55;;;;;;;12.35;2.88;;;17.00;99.90;;;;;;4951989;28;98754;-72
2023/03/23 10:49:38;;;;;;;13.48;3.20;;;17.00;99.90;;;;;;4951579;28;99341;-72
2023/03/23 10:52:28;;;;;;;14.20;3.80;;;17.00;99.90;;;;;;4950954;28;99202;-72
2023/03/23 10:55:00;;;;;;;10.60;3.10;;;17.20;99.90;;;;;;4951584;28;98491;-72
2023/03/23 10:57:29;;;;;;;14.93;3.78;;;17.30;99.90;;;;;;4953242;28;97824;-72
2023/03/23 11:00:21;;;;;;;15.00;3.13;;;17.40;99.90;;;;;;4952394;28;99138;-72
2023/03/23 11:03:28;;;;;;;14.88;3.33;;;17.50;99.90;;;;;;4967471;28;99159;-72
2023/03/23 11:06:00;;;;;;;10.90;3.13;;;17.60;99.90;;;;;;4919792;28;99304;-72
2023/03/23 11:08:35;;;;;;;9.38;2.60;;;17.40;99.90;;;;;;4935382;28;98627;-72
2023/03/23 11:11:16;;;;;;;9.07;2.70;;;17.40;99.90;;;;;;4950691;28;99376;-72
2023/03/23 11:13:45;;;;;;;9.32;2.45;;;17.40;99.90;;;;;;4952548;28;99116;-72
2023/03/23 11:16:23;;;;;;;9.70;2.45;;;17.40;99.90;;;;;;4951367;28;98555;-72
2023/03/23 11:18:49;;;;;;;8.63;2.80;;;17.60;99.90;;;;;;4952085;28;98413;-72
2023/03/23 11:21:16;;;;;;;5.88;2.17;;;17.60;99.90;;;;;;4950744;28;100164;-72
2023/03/23 11:23:48;;;;;;;8.05;2.63;;;17.80;99.90;;;;;;4934850;28;101487;-72
2023/03/23 11:26:26;;;;;;;5.28;2.03;;;17.90;99.90;;;;;;4951619;28;98525;-72
2023/03/23 11:28:58;;;;;;;7.93;2.47;;;18.10;99.70;;;;;;4921852;28;98580;-72
2023/03/23 11:31:32;;;;;;;7.35;2.17;;;18.10;99.90;;;;;;4953708;28;102605;-73
2023/03/23 11:34:03;;;;;;;9.18;2.58;;;18.00;98.90;;;;;;4970268;28;100593;-72
2023/03/23 11:36:42;;;;;;;9.07;2.83;;;17.70;98.90;;;;;;4954333;28;98638;-72
2023/03/23 11:39:30;;;;;;;8.88;2.55;;;17.70;99.30;;;;;;4954396;28;98513;-72
2023/03/23 11:42:17;;;;;;;8.63;2.42;;;17.70;99.30;;;;;;4970320;28;99243;-72
2023/03/23 11:44:45;;;;;;;8.75;3.05;;;17.80;99.60;;;;;;4937675;28;102401;-73
2023/03/23 11:47:22;;;;;;;8.57;2.40;;;17.90;99.60;;;;;;4955510;28;98590;-72
2023/03/23 11:50:03;;;;;;;11.25;2.50;;;17.90;99.20;;;;;;4956130;28;97712;-73
2023/03/23 11:52:36;;;;;;;7.70;2.53;;;17.90;99.60;;;;;;4937467;28;99381;-72
2023/03/23 11:55:32;;;;;;;10.90;2.42;;;17.90;99.40;;;;;;4953920;28;98844;-72
2023/03/23 11:58:05;;;;;;;7.25;2.08;;;17.90;98.90;;;;;;4952312;28;99292;-72
2023/03/23 12:00:31;;;;;;;6.60;2.00;;;17.70;98.80;;;;;;4955670;28;98482;-72
2023/03/23 12:03:33;;;;;;;10.32;3.08;;;17.70;99.10;;;;;;4954517;28;99279;-72
2023/03/23 12:06:12;;;;;;;8.43;2.47;;;17.90;99.40;;;;;;4953392;28;98981;-72
2023/03/23 12:09:06;;;;;;;8.95;2.70;;;18.00;99.40;;;;;;4953913;28;98583;-72
2023/03/23 12:11:45;;;;;;;7.38;2.33;;;18.10;99.00;;;;;;4937704;28;99212;-72
2023/03/23 12:14:20;;;;;;;5.97;2.50;;;18.20;99.20;;;;;;4954709;28;99369;-72
2023/03/23 12:16:54;;;;;;;11.48;3.00;;;18.30;99.60;;;;;;4970411;28;98815;-72
2023/03/23 12:19:55;;;;;;;7.82;2.20;;;18.40;99.20;;;;;;4954745;28;99355;-72
2023/03/23 12:22:44;;;;;;;11.70;2.70;;;18.40;98.90;;;;;;4954007;28;98558;-72
2023/03/23 12:25:12;;;;;;;7.57;2.45;;;18.30;98.70;;;;;;4936326;28;102463;-72
2023/03/23 12:27:38;;;;;;;6.22;1.92;;;18.20;98.60;;;;;;4954410;28;99572;-72
2023/03/23 12:30:04;;;;;;;6.20;2.35;;;18.30;97.70;;;;;;4937103;28;99072;-72
2023/03/23 12:32:36;;;;;;;4.60;2.08;;;18.40;97.70;;;;;;4953428;28;98587;-72
2023/03/23 12:35:22;;;;;;;8.38;2.22;;;18.40;97.50;;;;;;4953105;28;99229;-72
2023/03/23 12:37:53;;;;;;;5.45;2.10;;;18.50;97.00;;;;;;4953204;28;99092;-72
2023/03/23 12:40:31;;;;;;;8.45;2.20;;;18.50;97.40;;;;;;4954273;28;98509;-72
2023/03/23 12:43:27;;;;;;;8.77;2.38;;;18.60;97.00;;;;;;4953788;28;97872;-72
2023/03/23 12:46:17;;;;;;;8.60;2.08;;;18.60;96.90;;;;;;4969543;28;99316;-72
2023/03/23 12:48:50;;;;;;;6.93;2.28;;;18.50;97.10;;;;;;4936429;28;101558;-72
2023/03/23 12:51:32;;;;;;;7.07;2.70;;;18.60;97.40;;;;;;4954367;28;99180;-72
2023/03/23 12:54:02;;;;;;;6.28;2.25;;;18.80;97.10;;;;;;4936899;28;98513;-72
2023/03/23 12:56:51;;;;;;;6.22;1.90;;;18.60;96.90;;;;;;4953135;28;99289;-72
2023/03/23 12:59:39;;;;;;;8.95;2.45;;;18.50;96.40;;;;;;4922255;28;101683;-72
2023/03/23 13:02:16;;;;;;;10.70;2.25;;;18.50;96.70;;;;;;4952848;28;98548;-72
2023/03/23 13:04:52;;;;;;;7.22;2.22;;;18.60;97.00;;;;;;4936686;28;98559;-72
2023/03/23 13:07:28;;;;;;;10.55;3.00;;;18.50;97.20;;;;;;4936212;28;100350;-72
2023/03/23 13:10:00;;;;;;;6.70;2.47;;;18.50;97.30;;;;;;4953279;28;98974;-72
2023/03/23 13:12:27;;;;;;;7.25;2.33;;;18.60;97.50;;;;;;4936654;28;99003;-72
2023/03/23 13:14:58;;;;;;;7.30;2.20;;;18.50;97.90;;;;;;4953034;28;98648;-72